createdAt,value
2022-10-14T00:01:25.464Z,18812.00
2022-10-14T00:03:54.535Z,18834.38
2022-10-14T00:06:26.645Z,18834.38
2022-10-14T00:08:57.119Z,18822.19
2022-10-14T00:11:29.725Z,18820.16
2022-10-14T00:14:00.786Z,18818.09
2022-10-14T00:16:32.448Z,18832.34
2022-10-14T00:19:01.325Z,18836.41
2022-10-14T00:21:30.792Z,18826.25
2022-10-14T00:24:00.558Z,18830.31
2022-10-14T00:26:32.587Z,18834.38
2022-10-14T00:29:03.809Z,18848.59
2022-10-14T00:31:32.753Z,18842.50
2022-10-14T00:34:01.693Z,18789.66
2022-10-14T00:36:29.733Z,18805.91
2022-10-14T00:38:59.156Z,18862.81
2022-10-14T00:41:30.805Z,18809.97
2022-10-14T00:44:03.824Z,18822.19
2022-10-14T00:46:35.980Z,18848.59
2022-10-14T00:49:10.642Z,18826.25
2022-10-14T00:51:40.742Z,18818.09
2022-10-14T00:54:14.379Z,18842.50
2022-10-14T00:56:44.763Z,18822.19
2022-10-14T00:59:13.600Z,18836.41
2022-10-14T01:01:41.689Z,18816.06
2022-10-14T01:04:09.748Z,18822.19
2022-10-14T01:06:54.720Z,18781.53
2022-10-14T01:09:35.316Z,18779.50
2022-10-14T01:12:28.482Z,18797.78
2022-10-14T01:15:08.383Z,18779.50
2022-10-14T01:17:55.891Z,18803.88
2022-10-14T01:20:46.445Z,18781.53
2022-10-14T01:23:44.435Z,18755.13
2022-10-14T01:26:36.391Z,18860.78
2022-10-14T01:29:30.864Z,18781.53
2022-10-14T01:32:07.871Z,18805.91
2022-10-14T01:34:45.291Z,18783.56
2022-10-14T01:37:20.638Z,18781.53
2022-10-14T01:39:56.750Z,18781.53
2022-10-14T01:42:32.758Z,18803.88
2022-10-14T01:45:08.499Z,18787.63
2022-10-14T01:47:40.631Z,18791.69
2022-10-14T01:50:14.510Z,18797.78
2022-10-14T01:52:50.413Z,18793.72
2022-10-14T01:55:24.788Z,18789.66
2022-10-14T01:57:56.259Z,18799.81
2022-10-14T02:00:24.277Z,18781.53
2022-10-14T02:02:53.843Z,18795.75
2022-10-14T02:05:29.529Z,18791.69
2022-10-14T02:08:07.167Z,18785.59
2022-10-14T02:11:03.553Z,18763.25
2022-10-14T02:13:48.495Z,18793.72
2022-10-14T02:16:27.843Z,18783.56
2022-10-14T02:19:09.894Z,18781.53
2022-10-14T02:21:44.843Z,18807.94
2022-10-14T02:24:21.651Z,18765.28
2022-10-14T02:26:53.593Z,18773.41
2022-10-14T02:29:24.073Z,18785.59
2022-10-14T02:31:54.144Z,18793.72
2022-10-14T02:34:26.591Z,18793.72
2022-10-14T02:36:56.634Z,18785.59
2022-10-14T02:39:31.868Z,18769.34
2022-10-14T02:42:00.163Z,18771.38
2022-10-14T02:44:28.232Z,18775.44
2022-10-14T02:46:56.783Z,18787.63
2022-10-14T02:49:26.210Z,18769.34
2022-10-14T02:51:54.162Z,18759.19
2022-10-14T02:54:22.247Z,18779.50
2022-10-14T02:56:50.225Z,18769.34
2022-10-14T02:59:18.196Z,18765.28
2022-10-14T03:01:46.284Z,18771.38
2022-10-14T03:04:14.391Z,18757.16
2022-10-14T03:06:43.735Z,18722.63
2022-10-14T03:09:11.757Z,18763.25
2022-10-14T03:11:39.780Z,18791.69
2022-10-14T03:14:07.817Z,18773.41
2022-10-14T03:16:35.843Z,18747.00
2022-10-14T03:19:04.031Z,18777.47
2022-10-14T03:21:32.079Z,18757.16
2022-10-14T03:24:01.844Z,18755.13
2022-10-14T03:26:30.128Z,18765.28
2022-10-14T03:28:58.229Z,18761.22
2022-10-14T03:31:26.327Z,18751.06
2022-10-14T03:33:54.365Z,18763.25
2022-10-14T03:36:22.348Z,18749.03
2022-10-14T03:38:50.311Z,18765.28
2022-10-14T03:41:19.846Z,18773.41
2022-10-14T03:43:48.416Z,18716.53
2022-10-14T03:46:16.772Z,18753.09
2022-10-14T03:48:44.758Z,18720.59
2022-10-14T03:51:12.749Z,18773.41
2022-10-14T03:53:40.787Z,18751.06
2022-10-14T03:56:09.365Z,18777.47
2022-10-14T03:58:38.737Z,18761.22
2022-10-14T04:01:06.816Z,18753.09
2022-10-14T04:03:35.148Z,18753.09
2022-10-14T04:06:03.142Z,18744.97
2022-10-14T04:08:31.121Z,18757.16
2022-10-14T04:10:59.144Z,18767.31
2022-10-14T04:13:27.302Z,18777.47
2022-10-14T04:15:56.654Z,18783.56
2022-10-14T04:18:24.646Z,18781.53
2022-10-14T04:20:52.684Z,18730.75
2022-10-14T04:23:20.745Z,18740.91
2022-10-14T04:25:48.776Z,18716.53
2022-10-14T04:28:16.795Z,18728.72
2022-10-14T04:30:44.946Z,18714.50
2022-10-14T04:33:14.600Z,18700.25
2022-10-14T04:35:42.589Z,18667.75
2022-10-14T04:38:10.542Z,18684.00
2022-10-14T04:40:38.520Z,18702.28
2022-10-14T04:43:06.624Z,18671.81
2022-10-14T04:45:34.639Z,18655.56
2022-10-14T04:48:02.835Z,18688.06
2022-10-14T04:50:32.186Z,18635.25
2022-10-14T04:53:00.284Z,18665.72
2022-10-14T04:55:28.266Z,18629.16
2022-10-14T04:57:56.378Z,18655.56
2022-10-14T05:00:24.391Z,18608.84
2022-10-14T05:02:52.419Z,18631.19
2022-10-14T05:05:20.600Z,18580.41
2022-10-14T05:07:50.097Z,18570.22
2022-10-14T05:10:18.247Z,18582.44
2022-10-14T05:12:46.238Z,18582.44
2022-10-14T05:15:14.305Z,18562.09
2022-10-14T05:17:44.548Z,18600.72
2022-10-14T05:20:14.608Z,18533.66
2022-10-14T05:22:44.722Z,18503.19
2022-10-14T05:25:14.067Z,18509.28
2022-10-14T05:27:42.097Z,18505.22
2022-10-14T05:30:12.239Z,18547.88
2022-10-14T05:32:40.521Z,18501.16
2022-10-14T05:35:09.343Z,18482.88
2022-10-14T05:37:37.440Z,18517.41
2022-10-14T05:40:06.845Z,18470.69
2022-10-14T05:42:36.231Z,18480.84
2022-10-14T05:45:04.482Z,18480.84
2022-10-14T05:47:32.692Z,18478.81
2022-10-14T05:50:03.246Z,18460.53
2022-10-14T05:52:34.372Z,18446.31
2022-10-14T05:55:02.564Z,18470.69
2022-10-14T05:57:30.585Z,18454.44
2022-10-14T06:00:00.195Z,18442.25
2022-10-14T06:02:28.654Z,18438.19
2022-10-14T06:04:56.541Z,18413.78
2022-10-14T06:07:24.493Z,18438.19
2022-10-14T06:09:52.508Z,18413.78
2022-10-14T06:12:20.699Z,18401.59
2022-10-14T06:14:48.887Z,18415.81
2022-10-14T06:17:18.263Z,18381.28
2022-10-14T06:19:46.208Z,18415.81
2022-10-14T06:22:14.293Z,18407.69
2022-10-14T06:24:42.274Z,18450.38
2022-10-14T06:27:10.223Z,18411.75
2022-10-14T06:29:38.647Z,18423.94
2022-10-14T06:32:07.732Z,18421.91
2022-10-14T06:34:37.168Z,18425.97
2022-10-14T06:37:05.200Z,18446.31
2022-10-14T06:39:33.177Z,18480.84
2022-10-14T06:42:01.175Z,18545.84
2022-10-14T06:44:29.115Z,18570.22
2022-10-14T06:46:57.083Z,18527.56
2022-10-14T06:49:25.074Z,18562.09
2022-10-14T06:51:54.391Z,18594.63
2022-10-14T06:54:22.618Z,18580.41
2022-10-14T06:56:50.684Z,18568.19
2022-10-14T06:59:18.899Z,18625.09
2022-10-14T07:01:46.941Z,18690.09
2022-10-14T07:04:15.012Z,18649.47
2022-10-14T07:06:43.035Z,18663.69
2022-10-14T07:09:12.590Z,18734.81
2022-10-14T07:11:42.717Z,18785.59
2022-10-14T07:14:11.129Z,18842.50
2022-10-14T07:16:39.087Z,18830.31
2022-10-14T07:19:07.081Z,18820.16
2022-10-14T07:21:35.083Z,18868.91
2022-10-14T07:24:03.097Z,18909.53
2022-10-14T07:26:32.990Z,18940.03
2022-10-14T07:29:01.150Z,18978.63
2022-10-14T07:31:29.936Z,18972.53
2022-10-14T07:33:58.262Z,18996.91
2022-10-14T07:36:26.388Z,19009.09
2022-10-14T07:38:54.433Z,19027.41
2022-10-14T07:41:25.941Z,19013.16
2022-10-14T07:44:01.891Z,19053.81
2022-10-14T07:46:32.255Z,19059.91
2022-10-14T07:49:03.793Z,19102.56
2022-10-14T07:51:32.850Z,19126.97
2022-10-14T07:54:04.465Z,19285.47
2022-10-14T07:56:32.563Z,19338.28
2022-10-14T07:59:01.831Z,19342.34
2022-10-14T08:01:29.799Z,19289.53
2022-10-14T08:03:57.965Z,19417.56
2022-10-14T08:06:26.421Z,19326.09
2022-10-14T08:08:54.786Z,19324.06
2022-10-14T08:11:26.148Z,19261.06
2022-10-14T08:13:55.045Z,19248.88
2022-10-14T08:16:26.859Z,19189.97
2022-10-14T08:18:58.142Z,19177.75
2022-10-14T08:21:28.228Z,19161.50
2022-10-14T08:23:56.221Z,19151.34
2022-10-14T08:26:29.458Z,19102.56
2022-10-14T08:28:58.598Z,19122.91
2022-10-14T08:31:28.085Z,19131.03
2022-10-14T08:33:56.029Z,19139.16
2022-10-14T08:36:24.327Z,19145.25
2022-10-14T08:38:54.901Z,19159.47
2022-10-14T08:41:57.055Z,19175.72
2022-10-14T08:44:29.811Z,19250.91
2022-10-14T08:47:02.884Z,19340.31
2022-10-14T08:49:38.553Z,19468.34
2022-10-14T08:52:14.291Z,19555.75
2022-10-14T08:54:48.172Z,19561.84
2022-10-14T08:57:21.625Z,19545.56
2022-10-14T08:59:50.055Z,19608.56
2022-10-14T09:02:36.518Z,19689.88
2022-10-14T09:05:06.600Z,19706.13
2022-10-14T09:07:38.050Z,19726.44
2022-10-14T09:10:16.645Z,19840.25
2022-10-14T09:12:45.683Z,19925.63
2022-10-14T09:15:23.458Z,19984.56
2022-10-14T09:18:06.355Z,20084.16
2022-10-14T09:20:34.507Z,20053.66
2022-10-14T09:23:17.161Z,20145.13
2022-10-14T09:25:56.814Z,20193.91
2022-10-14T09:28:36.510Z,20149.19
2022-10-14T09:31:06.450Z,20246.75
2022-10-14T09:33:42.154Z,20228.47
2022-10-14T09:36:18.034Z,20234.56
2022-10-14T09:38:48.120Z,20230.50
2022-10-14T09:41:17.625Z,20195.94
2022-10-14T09:44:22.485Z,20240.66
2022-10-14T09:46:55.977Z,20167.47
2022-10-14T09:49:35.734Z,20244.72
2022-10-14T09:52:03.699Z,20214.22
2022-10-14T09:54:33.912Z,20269.13
2022-10-14T09:57:08.256Z,20419.53
2022-10-14T09:59:53.801Z,20565.88
2022-10-14T10:02:25.927Z,20535.41
2022-10-14T10:04:57.243Z,20580.13
2022-10-14T10:07:31.200Z,20610.59
2022-10-14T10:10:01.997Z,20604.50
2022-10-14T10:12:33.079Z,20632.97
2022-10-14T10:15:05.218Z,20628.91
2022-10-14T10:17:35.866Z,20663.47
2022-10-14T10:20:28.101Z,20628.91
2022-10-14T10:22:57.176Z,20651.25
2022-10-14T10:25:28.231Z,20720.38
2022-10-14T10:28:00.434Z,20706.16
2022-10-14T10:30:33.003Z,20728.50
2022-10-14T10:33:25.454Z,20663.47
2022-10-14T10:39:00.741Z,20742.75
2022-10-14T10:41:53.294Z,20687.84
2022-10-14T10:45:00.185Z,20756.97
2022-10-14T10:47:45.509Z,20716.31
2022-10-14T10:50:33.295Z,20722.41
2022-10-14T10:53:50.562Z,20738.66
2022-10-14T10:56:34.193Z,20824.06
2022-10-14T10:59:35.212Z,20862.69
2022-10-14T11:02:55.840Z,20891.13
2022-10-14T11:05:50.560Z,20903.34
2022-10-14T11:09:11.527Z,20917.56
2022-10-14T11:12:06.411Z,20870.81
2022-10-14T11:15:02.900Z,20919.59
2022-10-14T11:17:43.335Z,20903.34
2022-10-14T11:20:29.911Z,20862.69
2022-10-14T11:23:26.076Z,20854.53
2022-10-14T11:26:03.954Z,20856.56
2022-10-14T11:28:46.915Z,20807.78
2022-10-14T11:31:34.141Z,20801.69
2022-10-14T11:34:35.301Z,20807.78
2022-10-14T11:37:15.601Z,20872.84
2022-10-14T11:39:50.303Z,20846.41
2022-10-14T11:42:35.891Z,20856.56
2022-10-14T11:45:30.340Z,20915.53
2022-10-14T11:48:18.561Z,20970.41
2022-10-14T11:50:55.209Z,20960.25
2022-10-14T11:56:29.312Z,20919.59
2022-10-14T11:59:26.892Z,20923.66
2022-10-14T12:02:03.554Z,20872.84
2022-10-14T12:04:37.133Z,20911.47
2022-10-14T12:07:18.455Z,20927.72
2022-10-14T12:09:55.914Z,20933.81
2022-10-14T12:12:30.185Z,20923.66
2022-10-14T12:15:05.716Z,20889.09
2022-10-14T12:17:41.295Z,20880.97
2022-10-14T12:20:26.680Z,20931.78
2022-10-14T12:22:57.341Z,20933.81
2022-10-14T12:25:31.572Z,21023.28
2022-10-14T12:28:00.471Z,21057.84
2022-10-14T12:30:42.096Z,21106.63
2022-10-14T12:33:12.742Z,21088.34
2022-10-14T12:35:59.021Z,21045.63
2022-10-14T12:38:29.787Z,21049.72
2022-10-14T12:41:39.016Z,21088.34
2022-10-14T12:44:18.598Z,21084.28
2022-10-14T12:46:50.836Z,21057.84
2022-10-14T12:49:28.043Z,21007.00
2022-10-14T12:51:59.026Z,20923.66
2022-10-14T12:54:28.836Z,20876.91
2022-10-14T12:57:01.353Z,20854.53
2022-10-14T12:59:33.621Z,20862.69
2022-10-14T13:02:15.043Z,20826.09
2022-10-14T13:04:49.964Z,20824.06
2022-10-14T13:07:46.866Z,20830.16
2022-10-14T13:10:47.034Z,20809.81
2022-10-14T13:14:00.365Z,20844.38
2022-10-14T13:16:58.687Z,20828.13
2022-10-14T13:19:46.775Z,20935.88
2022-10-14T13:22:40.499Z,20954.16
2022-10-14T13:25:16.812Z,21035.47
2022-10-14T13:28:04.538Z,21055.81
2022-10-14T13:30:47.175Z,21068.00
2022-10-14T13:33:23.724Z,21088.34
2022-10-14T13:36:08.676Z,21047.69
2022-10-14T13:38:37.793Z,21021.25
2022-10-14T13:41:07.575Z,21017.19
2022-10-14T13:43:42.284Z,20984.66
2022-10-14T13:46:20.242Z,20976.53
2022-10-14T13:48:52.571Z,20954.16
2022-10-14T13:51:45.154Z,20878.94
2022-10-14T13:54:20.954Z,20878.94
2022-10-14T13:57:28.944Z,20948.06
2022-10-14T14:02:40.943Z,20986.69
2022-10-14T14:05:18.466Z,20974.50
2022-10-14T14:08:22.224Z,20925.69
2022-10-14T14:10:57.470Z,20872.84
2022-10-14T14:13:31.100Z,20874.88
2022-10-14T14:16:09.879Z,20771.19
2022-10-14T14:18:55.636Z,20767.13
2022-10-14T14:21:30.177Z,20736.63
2022-10-14T14:24:02.166Z,20726.47
2022-10-14T14:26:36.811Z,20738.66
2022-10-14T14:29:07.915Z,20716.31
2022-10-14T14:32:04.999Z,20714.28
2022-10-14T14:34:25.397Z,20712.25
2022-10-14T14:37:01.339Z,20679.72
2022-10-14T14:39:35.240Z,20698.00
2022-10-14T14:42:03.482Z,20669.56
2022-10-14T14:44:34.830Z,20687.84
2022-10-14T14:47:04.919Z,20610.59
2022-10-14T14:49:38.034Z,20604.50
2022-10-14T14:52:07.500Z,20614.66
2022-10-14T14:54:46.618Z,20586.22
2022-10-14T14:57:19.599Z,20588.25
2022-10-14T15:00:00.564Z,20539.47
2022-10-14T15:02:32.742Z,20527.25
2022-10-14T15:05:03.581Z,20460.19
2022-10-14T15:07:32.029Z,20478.47
2022-10-14T15:10:06.378Z,20452.06
2022-10-14T15:12:39.837Z,20452.06
2022-10-14T15:15:26.665Z,20458.16
2022-10-14T15:18:15.126Z,20393.09
2022-10-14T15:20:44.212Z,20401.22
2022-10-14T15:23:41.895Z,20342.28
2022-10-14T15:26:33.369Z,20321.97
2022-10-14T15:29:17.062Z,20346.34
2022-10-14T15:31:47.978Z,20234.56
2022-10-14T15:34:21.623Z,20309.75
2022-10-14T15:36:54.067Z,20301.63
2022-10-14T15:39:23.304Z,20346.34
2022-10-14T15:41:52.584Z,20346.34
2022-10-14T15:44:20.525Z,20326.03
2022-10-14T15:47:06.040Z,20260.97
2022-10-14T15:49:38.972Z,20254.88
2022-10-14T15:52:06.985Z,20228.47
2022-10-14T15:54:34.945Z,20244.72
2022-10-14T15:57:05.676Z,20183.75
2022-10-14T15:59:33.662Z,20183.75
2022-10-14T16:02:03.902Z,20090.25
2022-10-14T16:04:33.509Z,20080.09
2022-10-14T16:07:01.496Z,20057.72
2022-10-14T16:09:29.496Z,19986.59
2022-10-14T16:12:00.488Z,19964.25
2022-10-14T16:14:29.948Z,19931.72
2022-10-14T16:16:57.868Z,19925.63
2022-10-14T16:19:25.813Z,19913.44
2022-10-14T16:21:53.763Z,19876.84
2022-10-14T16:24:25.462Z,19868.72
2022-10-14T16:26:54.641Z,19856.53
2022-10-14T16:29:22.939Z,19817.91
2022-10-14T16:31:52.741Z,19819.94
2022-10-14T16:34:23.719Z,19803.69
2022-10-14T16:36:53.547Z,19789.44
2022-10-14T16:39:21.867Z,19769.13
2022-10-14T16:41:50.208Z,19710.19
2022-10-14T16:44:27.168Z,19732.53
2022-10-14T16:47:17.468Z,19689.88
2022-10-14T16:49:49.059Z,19647.19
2022-10-14T16:52:17.382Z,19677.66
2022-10-14T16:54:45.642Z,19624.84
2022-10-14T16:57:14.401Z,19624.84
2022-10-14T16:59:42.510Z,19576.06
2022-10-14T17:02:15.883Z,19618.75
2022-10-14T17:04:46.325Z,19580.13
2022-10-14T17:07:16.573Z,19614.66
2022-10-14T17:09:44.756Z,19588.25
2022-10-14T17:12:14.090Z,19590.28
2022-10-14T17:14:42.834Z,19580.13
2022-10-14T17:17:13.019Z,19620.78
2022-10-14T17:19:41.264Z,19641.09
2022-10-14T17:22:09.208Z,19643.13
2022-10-14T17:24:37.161Z,19606.53
2022-10-14T17:27:05.393Z,19610.59
2022-10-14T17:29:34.033Z,19614.66
2022-10-14T17:32:02.001Z,19608.56
2022-10-14T17:34:31.743Z,19594.34
2022-10-14T17:37:00.558Z,19628.91
2022-10-14T17:39:29.904Z,19606.53
2022-10-14T17:41:58.524Z,19637.03
2022-10-14T17:44:28.574Z,19647.19
2022-10-14T17:46:56.868Z,19669.53
2022-10-14T17:49:24.825Z,19659.38
2022-10-14T17:51:54.183Z,19626.88
2022-10-14T17:54:22.288Z,19641.09
2022-10-14T17:56:50.234Z,19606.53
2022-10-14T17:59:18.130Z,19643.13
2022-10-14T18:02:03.224Z,19580.13
2022-10-14T18:04:33.125Z,19614.66
2022-10-14T18:07:02.545Z,19643.13
2022-10-14T18:09:30.511Z,19576.06
2022-10-14T18:12:13.766Z,19639.06
2022-10-14T18:14:42.636Z,19606.53
2022-10-14T18:17:12.458Z,19630.94
2022-10-14T18:19:41.031Z,19679.72
2022-10-14T18:22:12.023Z,19651.25
2022-10-14T18:24:40.258Z,19679.72
2022-10-14T18:27:08.307Z,19665.47
2022-10-14T18:29:36.403Z,19659.38
2022-10-14T18:32:04.683Z,19661.41
2022-10-14T18:34:33.021Z,19661.41
2022-10-14T18:37:01.062Z,19728.47
2022-10-14T18:39:30.428Z,19700.03
2022-10-14T18:41:58.759Z,19685.81
2022-10-14T18:44:26.807Z,19683.78
2022-10-14T18:46:54.933Z,19738.66
2022-10-14T18:49:22.887Z,19799.63
2022-10-14T18:51:51.786Z,19856.53
2022-10-14T18:54:23.662Z,19783.34
2022-10-14T18:56:54.740Z,19761.00
2022-10-14T18:59:24.374Z,19748.81
2022-10-14T19:01:53.429Z,19752.88
2022-10-14T19:04:25.069Z,19726.44
2022-10-14T19:06:53.351Z,19765.06
2022-10-14T19:09:28.832Z,19716.28
2022-10-14T19:11:59.503Z,19740.69
2022-10-14T19:14:28.580Z,19679.72
2022-10-14T19:16:56.645Z,19708.16
2022-10-14T19:19:24.617Z,19669.53
2022-10-14T19:21:54.190Z,19695.97
2022-10-14T19:24:22.787Z,19710.19
2022-10-14T19:26:50.888Z,19740.69
2022-10-14T19:29:20.398Z,19758.97
2022-10-14T19:31:54.316Z,19698.00
2022-10-14T19:34:26.744Z,19691.91
2022-10-14T19:36:55.289Z,19789.44
2022-10-14T19:39:23.303Z,19726.44
2022-10-14T19:41:51.299Z,19720.34
2022-10-14T19:44:20.761Z,19720.34
2022-10-14T19:46:48.779Z,19712.22
2022-10-14T19:49:17.556Z,19683.78
2022-10-14T19:51:45.875Z,19675.63
2022-10-14T19:54:14.614Z,19669.53
2022-10-14T19:56:43.900Z,19630.94
2022-10-14T19:59:13.449Z,19643.13
2022-10-14T20:01:43.060Z,19600.44
2022-10-14T20:04:11.121Z,19663.44
2022-10-14T20:06:40.177Z,19687.84
2022-10-14T20:09:11.738Z,19657.34
2022-10-14T20:11:39.862Z,19643.13
2022-10-14T20:14:08.037Z,19604.50
2022-10-14T20:16:36.108Z,19586.22
2022-10-14T20:19:05.887Z,19624.84
2022-10-14T20:21:33.906Z,19639.06
2022-10-14T20:24:01.902Z,19596.38
2022-10-14T20:26:30.657Z,19616.72
2022-10-14T20:28:59.213Z,19561.84
2022-10-14T20:31:27.361Z,19561.84
2022-10-14T20:33:57.500Z,19574.03
2022-10-14T20:36:26.951Z,19580.13
2022-10-14T20:38:54.990Z,19598.41
2022-10-14T20:41:25.808Z,19622.81
2022-10-14T20:43:56.060Z,19565.91
2022-10-14T20:46:25.284Z,19559.81
2022-10-14T20:48:57.544Z,19509.00
2022-10-14T20:51:27.438Z,19533.38
2022-10-14T20:54:01.770Z,19547.59
2022-10-14T20:56:33.911Z,19480.53
2022-10-14T20:59:04.389Z,19506.97
2022-10-14T21:01:33.616Z,19561.84
2022-10-14T21:04:03.619Z,19545.56
2022-10-14T21:06:33.005Z,19539.47
2022-10-14T21:09:02.095Z,19517.13
2022-10-14T21:11:30.193Z,19480.53
2022-10-14T21:14:00.796Z,19460.22
2022-10-14T21:16:32.589Z,19500.88
2022-10-14T21:19:04.865Z,19423.66
2022-10-14T21:21:37.401Z,19427.72
2022-10-14T21:24:06.355Z,19443.97
2022-10-14T21:26:34.765Z,19421.63
2022-10-14T21:29:03.764Z,19411.44
2022-10-14T21:31:32.118Z,19403.31
2022-10-14T21:34:06.048Z,19340.31
2022-10-14T21:36:37.456Z,19265.13
2022-10-14T21:39:08.851Z,19289.53
2022-10-14T21:41:38.388Z,19259.03
2022-10-14T21:44:07.239Z,19192.00
2022-10-14T21:46:36.451Z,19192.00
2022-10-14T21:49:04.778Z,19204.19
2022-10-14T21:51:33.411Z,19159.47
2022-10-14T21:54:03.023Z,19139.16
2022-10-14T21:56:31.509Z,19175.72
2022-10-14T21:58:59.903Z,19141.19
2022-10-14T22:01:30.608Z,19122.91
2022-10-14T22:04:01.117Z,19139.16
2022-10-14T22:06:29.557Z,19106.66
2022-10-14T22:09:00.129Z,19102.56
2022-10-14T22:11:33.192Z,19086.31
2022-10-14T22:14:04.693Z,19070.06
2022-10-14T22:16:36.194Z,19041.63
2022-10-14T22:19:07.408Z,19055.84
2022-10-14T22:21:38.236Z,19053.81
2022-10-14T22:26:42.905Z,19037.56
2022-10-14T22:29:14.982Z,19015.19
2022-10-14T22:31:43.744Z,19037.56
2022-10-14T22:34:17.766Z,19029.44
2022-10-14T22:36:46.698Z,19011.13
2022-10-14T22:39:17.740Z,19035.53
2022-10-14T22:41:47.125Z,19023.34
2022-10-14T22:44:15.093Z,19013.16
2022-10-14T22:46:44.631Z,18974.56
2022-10-14T22:49:12.652Z,18976.59
2022-10-14T22:51:41.685Z,18998.94
2022-10-14T22:54:10.222Z,18968.47
2022-10-14T22:56:39.418Z,18940.03
2022-10-14T22:59:11.783Z,18919.69
2022-10-14T23:01:40.610Z,18935.97
2022-10-14T23:04:11.769Z,18911.56
2022-10-14T23:06:43.654Z,18952.22
2022-10-14T23:09:11.803Z,18909.53
2022-10-14T23:11:39.876Z,18909.53
2022-10-14T23:14:09.476Z,18897.34
2022-10-14T23:16:39.526Z,18919.69
2022-10-14T23:19:07.547Z,18877.03
2022-10-14T23:21:38.370Z,18879.06
2022-10-14T23:24:11.026Z,18897.34
2022-10-14T23:26:39.553Z,18854.69
2022-10-14T23:29:11.741Z,18887.19
2022-10-14T23:31:42.057Z,18911.56
2022-10-14T23:34:14.630Z,18856.72
2022-10-14T23:36:43.457Z,18836.41
2022-10-14T23:39:11.852Z,18891.25
2022-10-14T23:41:40.350Z,18917.66
2022-10-14T23:44:11.612Z,18891.25
2022-10-14T23:46:39.675Z,18854.69
2022-10-14T23:49:25.031Z,18834.38
2022-10-14T23:51:55.190Z,18889.22
2022-10-14T23:54:23.297Z,18866.88
2022-10-14T23:56:51.654Z,18885.16
2022-10-14T23:59:20.970Z,18860.78
